createdAt,value
2023-03-17T00:01:51.205Z,5.90
2023-03-17T00:04:22.730Z,6.30
2023-03-17T00:06:49.436Z,5.90
2023-03-17T00:09:18.181Z,5.90
2023-03-17T00:11:46.095Z,5.90
2023-03-17T00:14:12.888Z,5.90
2023-03-17T00:16:45.052Z,5.90
2023-03-17T00:19:17.116Z,5.90
2023-03-17T00:21:45.972Z,5.90
2023-03-17T00:24:15.050Z,5.90
2023-03-17T00:26:42.522Z,5.90
2023-03-17T00:29:09.859Z,5.90
2023-03-17T00:31:39.008Z,5.80
2023-03-17T00:34:06.549Z,5.80
2023-03-17T00:36:34.403Z,5.80
2023-03-17T00:39:01.472Z,5.80
2023-03-17T00:41:29.441Z,5.80
2023-03-17T00:43:57.176Z,5.70
2023-03-17T00:46:35.486Z,5.70
2023-03-17T00:51:43.743Z,5.70
2023-03-17T00:54:10.990Z,5.70
2023-03-17T00:56:39.352Z,5.60
2023-03-17T00:59:19.513Z,5.60
2023-03-17T01:01:47.706Z,5.50
2023-03-17T01:04:15.544Z,5.50
2023-03-17T01:06:43.206Z,5.40
2023-03-17T01:09:16.682Z,5.40
2023-03-17T01:11:44.342Z,5.30
2023-03-17T01:14:12.798Z,5.30
2023-03-17T01:16:39.629Z,5.30
2023-03-17T01:19:06.501Z,5.30
2023-03-17T01:21:33.189Z,5.30
2023-03-17T01:24:00.377Z,5.30
2023-03-17T01:26:27.408Z,5.30
2023-03-17T01:28:54.690Z,5.30
2023-03-17T01:31:21.338Z,5.30
2023-03-17T01:33:47.975Z,5.40
2023-03-17T01:36:15.699Z,5.40
2023-03-17T01:38:42.345Z,5.40
2023-03-17T01:41:08.967Z,5.40
2023-03-17T01:43:36.525Z,5.40
2023-03-17T01:46:25.270Z,5.40
2023-03-17T01:49:16.241Z,5.40
2023-03-17T01:51:46.546Z,5.40
2023-03-17T01:54:30.817Z,5.40
2023-03-17T01:57:09.254Z,5.40
2023-03-17T01:59:42.226Z,5.40
2023-03-17T02:02:12.496Z,5.50
2023-03-17T02:04:40.329Z,5.40
2023-03-17T02:07:07.359Z,5.40
2023-03-17T02:09:35.229Z,5.40
2023-03-17T02:12:03.737Z,5.40
2023-03-17T02:14:30.657Z,5.40
2023-03-17T02:16:57.476Z,5.40
2023-03-17T02:19:24.497Z,5.30
2023-03-17T02:21:53.963Z,5.30
2023-03-17T02:24:26.542Z,5.30
2023-03-17T02:26:55.643Z,5.20
2023-03-17T02:29:23.357Z,5.10
2023-03-17T02:31:50.586Z,5.10
2023-03-17T02:34:17.270Z,5.00
2023-03-17T02:36:44.245Z,5.00
2023-03-17T02:39:11.101Z,4.90
2023-03-17T02:41:38.015Z,4.90
2023-03-17T02:44:05.005Z,4.90
2023-03-17T02:46:32.000Z,4.90
2023-03-17T02:48:58.735Z,4.90
2023-03-17T02:51:25.478Z,4.80
2023-03-17T02:53:52.238Z,4.80
2023-03-17T02:56:18.937Z,4.80
2023-03-17T02:58:45.564Z,4.80
2023-03-17T03:01:13.113Z,4.80
2023-03-17T03:03:39.817Z,4.90
2023-03-17T03:06:06.870Z,4.80
2023-03-17T03:08:33.688Z,4.80
2023-03-17T03:11:02.418Z,4.80
2023-03-17T03:13:29.496Z,4.70
2023-03-17T03:15:56.224Z,4.60
2023-03-17T03:18:23.101Z,4.60
2023-03-17T03:20:49.885Z,4.50
2023-03-17T03:23:16.914Z,4.50
2023-03-17T03:25:43.606Z,4.40
2023-03-17T03:28:10.349Z,4.40
2023-03-17T03:30:37.919Z,4.40
2023-03-17T03:33:05.172Z,4.30
2023-03-17T03:35:32.162Z,4.30
2023-03-17T03:37:59.320Z,4.30
2023-03-17T03:40:26.168Z,4.20
2023-03-17T03:42:53.093Z,4.10
2023-03-17T03:45:19.759Z,4.10
2023-03-17T03:47:46.416Z,4.00
2023-03-17T03:50:13.286Z,4.00
2023-03-17T03:52:40.208Z,3.90
2023-03-17T03:55:07.280Z,3.90
2023-03-17T03:57:33.944Z,3.90
2023-03-17T04:00:00.859Z,3.90
2023-03-17T04:02:27.702Z,3.90
2023-03-17T04:04:54.632Z,3.80
2023-03-17T04:07:21.436Z,3.80
2023-03-17T04:09:49.276Z,3.70
2023-03-17T04:12:17.055Z,3.70
2023-03-17T04:14:44.551Z,3.60
2023-03-17T04:17:11.962Z,3.60
2023-03-17T04:19:39.149Z,3.60
2023-03-17T04:22:07.482Z,3.50
2023-03-17T04:24:35.070Z,3.50
2023-03-17T04:27:03.694Z,3.50
2023-03-17T04:29:32.348Z,3.50
2023-03-17T04:31:59.070Z,3.40
2023-03-17T04:34:27.236Z,3.40
2023-03-17T04:36:53.984Z,3.40
2023-03-17T04:39:20.879Z,3.40
2023-03-17T04:41:47.589Z,3.40
2023-03-17T04:44:14.257Z,3.30
2023-03-17T04:46:41.003Z,3.30
2023-03-17T04:49:08.408Z,3.20
2023-03-17T04:51:36.813Z,3.10
2023-03-17T04:54:04.021Z,3.10
2023-03-17T04:56:31.966Z,3.00
2023-03-17T04:58:58.938Z,2.90
2023-03-17T05:01:26.300Z,2.90
2023-03-17T05:03:53.002Z,2.90
2023-03-17T05:06:19.738Z,2.90
2023-03-17T05:08:46.379Z,2.90
2023-03-17T05:11:14.326Z,2.90
2023-03-17T05:13:41.573Z,3.00
2023-03-17T05:16:09.580Z,3.00
2023-03-17T05:18:37.234Z,3.00
2023-03-17T05:21:05.597Z,2.90
2023-03-17T05:23:32.407Z,2.90
2023-03-17T05:25:59.279Z,2.80
2023-03-17T05:28:26.666Z,2.80
2023-03-17T05:30:54.904Z,2.80
2023-03-17T05:33:21.794Z,2.70
2023-03-17T05:35:48.836Z,2.70
2023-03-17T05:38:16.068Z,2.60
2023-03-17T05:40:43.734Z,2.60
2023-03-17T05:43:10.601Z,2.60
2023-03-17T05:45:37.640Z,2.60
2023-03-17T05:48:04.827Z,2.60
2023-03-17T05:50:31.983Z,2.60
2023-03-17T05:52:58.764Z,2.60
2023-03-17T05:55:25.539Z,2.60
2023-03-17T05:57:52.223Z,2.60
2023-03-17T06:00:20.942Z,2.60
2023-03-17T06:02:47.702Z,2.70
2023-03-17T06:05:14.665Z,2.70
2023-03-17T06:07:52.863Z,2.70
2023-03-17T06:10:23.300Z,2.80
2023-03-17T06:12:50.029Z,3.00
2023-03-17T06:15:17.148Z,3.30
2023-03-17T06:17:43.993Z,3.50
2023-03-17T06:20:11.924Z,3.70
2023-03-17T06:22:46.298Z,4.00
2023-03-17T06:25:18.873Z,4.40
2023-03-17T06:27:45.537Z,5.00
2023-03-17T06:30:12.700Z,5.60
2023-03-17T06:32:40.229Z,6.20
2023-03-17T06:35:07.473Z,6.70
2023-03-17T06:37:34.508Z,7.20
2023-03-17T06:40:01.203Z,7.70
2023-03-17T06:42:28.167Z,8.20
2023-03-17T06:44:55.557Z,8.90
2023-03-17T06:47:24.782Z,9.30
2023-03-17T06:49:53.472Z,9.70
2023-03-17T06:52:20.277Z,9.90
2023-03-17T06:54:46.931Z,10.20
2023-03-17T06:57:13.601Z,10.40
2023-03-17T06:59:40.383Z,10.60
2023-03-17T07:02:07.184Z,10.90
2023-03-17T07:04:37.471Z,11.10
2023-03-17T07:07:05.691Z,10.90
2023-03-17T07:09:34.364Z,10.80
2023-03-17T07:12:05.245Z,10.80
2023-03-17T07:14:36.819Z,10.90
2023-03-17T07:17:06.047Z,11.30
2023-03-17T07:19:35.045Z,11.70
2023-03-17T07:22:01.669Z,11.90
2023-03-17T07:24:28.513Z,12.00
2023-03-17T07:26:55.159Z,12.10
2023-03-17T07:29:22.717Z,12.10
2023-03-17T07:31:49.701Z,12.00
2023-03-17T07:34:16.646Z,12.00
2023-03-17T07:36:43.364Z,12.00
2023-03-17T07:39:12.062Z,11.60
2023-03-17T07:41:38.923Z,11.30
2023-03-17T07:44:05.614Z,11.10
2023-03-17T07:46:32.338Z,11.30
2023-03-17T07:48:59.003Z,11.70
2023-03-17T07:51:27.955Z,12.70
2023-03-17T07:54:03.152Z,13.80
2023-03-17T07:56:33.021Z,15.00
2023-03-17T07:59:00.003Z,16.00
2023-03-17T08:01:27.779Z,16.90
2023-03-17T08:03:56.387Z,18.00
2023-03-17T08:06:25.253Z,18.50
2023-03-17T08:08:53.821Z,19.20
2023-03-17T08:11:21.070Z,20.90
2023-03-17T08:13:48.176Z,22.80
2023-03-17T08:16:14.916Z,24.70
2023-03-17T08:18:41.841Z,26.40
2023-03-17T08:21:08.508Z,27.60
2023-03-17T08:23:35.434Z,28.50
2023-03-17T08:26:04.046Z,28.10
2023-03-17T08:28:31.447Z,27.80
2023-03-17T08:31:12.458Z,27.00
2023-03-17T08:33:42.128Z,25.80
2023-03-17T08:36:09.925Z,24.20
2023-03-17T08:38:37.999Z,23.50
2023-03-17T08:41:08.765Z,23.20
2023-03-17T08:43:37.217Z,23.50
2023-03-17T08:46:07.690Z,24.00
2023-03-17T08:48:36.533Z,24.60
2023-03-17T08:51:04.756Z,25.90
2023-03-17T08:53:32.434Z,27.00
2023-03-17T08:55:59.065Z,27.90
2023-03-17T08:58:25.887Z,28.50
2023-03-17T09:00:53.789Z,29.30
2023-03-17T09:03:21.655Z,29.90
2023-03-17T09:05:49.866Z,30.90
2023-03-17T09:08:16.611Z,31.80
2023-03-17T09:10:44.384Z,32.70
2023-03-17T09:13:11.628Z,32.60
2023-03-17T09:15:38.844Z,32.40
2023-03-17T09:18:07.134Z,31.30
2023-03-17T09:20:34.215Z,30.10
2023-03-17T09:23:01.370Z,29.70
2023-03-17T09:25:28.044Z,29.40
2023-03-17T09:27:55.616Z,28.60
2023-03-17T09:30:22.857Z,27.90
2023-03-17T09:32:49.829Z,27.10
2023-03-17T09:35:16.859Z,26.20
2023-03-17T09:37:43.596Z,25.40
2023-03-17T09:40:15.801Z,25.30
2023-03-17T09:42:53.722Z,24.50
2023-03-17T09:45:26.486Z,24.30
2023-03-17T09:48:04.800Z,23.90
2023-03-17T09:50:57.782Z,23.90
2023-03-17T09:53:35.849Z,23.10
2023-03-17T09:56:14.187Z,22.60
2023-03-17T09:58:46.814Z,22.30
2023-03-17T10:01:13.483Z,21.80
2023-03-17T10:03:40.283Z,21.30
2023-03-17T10:06:21.783Z,21.10
2023-03-17T10:08:59.410Z,20.40
2023-03-17T10:11:40.750Z,19.70
2023-03-17T10:14:10.108Z,19.10
2023-03-17T10:16:41.460Z,18.90
2023-03-17T10:19:30.385Z,18.80
2023-03-17T10:22:02.927Z,18.60
2023-03-17T10:24:33.740Z,18.60
2023-03-17T10:27:06.291Z,18.50
2023-03-17T10:29:33.218Z,18.30
2023-03-17T10:32:00.009Z,18.30
2023-03-17T10:34:36.660Z,18.60
2023-03-17T10:37:24.862Z,19.00
2023-03-17T10:39:56.081Z,19.60
2023-03-17T10:42:29.081Z,20.00
2023-03-17T10:45:13.159Z,20.50
2023-03-17T10:47:50.075Z,21.00
2023-03-17T10:50:32.587Z,21.60
2023-03-17T10:53:03.700Z,22.30
2023-03-17T10:55:48.816Z,22.50
2023-03-17T10:58:22.643Z,22.90
2023-03-17T11:01:05.700Z,23.10
2023-03-17T11:03:36.044Z,23.60
2023-03-17T11:06:10.175Z,23.60
2023-03-17T11:08:53.688Z,24.10
2023-03-17T11:11:27.469Z,24.20
2023-03-17T11:14:11.738Z,24.60
2023-03-17T11:16:46.637Z,24.90
2023-03-17T11:19:16.752Z,25.10
2023-03-17T11:22:07.780Z,25.20
2023-03-17T11:24:59.224Z,24.90
2023-03-17T11:27:34.236Z,24.30
2023-03-17T11:30:06.870Z,23.90
2023-03-17T11:32:37.063Z,23.50
2023-03-17T11:35:14.032Z,23.30
2023-03-17T11:38:01.865Z,23.00
2023-03-17T11:40:44.400Z,22.90
2023-03-17T11:43:20.433Z,23.00
2023-03-17T11:45:59.749Z,23.00
2023-03-17T11:48:48.622Z,22.70
2023-03-17T11:51:28.719Z,22.60
2023-03-17T11:54:08.108Z,22.40
2023-03-17T11:56:49.736Z,22.30
2023-03-17T11:59:19.648Z,22.10
2023-03-17T12:01:54.774Z,22.10
2023-03-17T12:04:35.813Z,22.10
2023-03-17T12:07:20.674Z,22.00
2023-03-17T12:09:53.237Z,21.80
2023-03-17T12:12:28.243Z,21.40
2023-03-17T12:14:57.746Z,21.20
2023-03-17T12:17:36.665Z,21.10
2023-03-17T12:20:19.740Z,21.10
2023-03-17T12:22:57.142Z,21.20
2023-03-17T12:25:40.487Z,21.10
2023-03-17T12:28:16.224Z,21.00
2023-03-17T12:31:06.753Z,21.00
2023-03-17T12:33:57.683Z,20.90
2023-03-17T12:36:25.121Z,20.50
2023-03-17T12:39:01.871Z,20.00
2023-03-17T12:41:53.347Z,19.70
2023-03-17T12:44:26.064Z,19.20
2023-03-17T12:47:23.631Z,18.90
2023-03-17T12:52:33.260Z,18.60
2023-03-17T12:55:03.299Z,18.60
2023-03-17T12:57:38.543Z,18.60
2023-03-17T13:00:25.160Z,18.50
2023-03-17T13:03:11.744Z,18.40
2023-03-17T13:05:38.574Z,18.50
2023-03-17T13:08:08.347Z,18.60
2023-03-17T13:10:42.009Z,18.60
2023-03-17T13:13:21.502Z,18.50
2023-03-17T13:15:52.185Z,18.30
2023-03-17T13:18:18.976Z,18.30
2023-03-17T13:20:56.559Z,18.40
2023-03-17T13:23:44.405Z,18.60
2023-03-17T13:26:22.339Z,18.60
2023-03-17T13:28:52.117Z,18.60
2023-03-17T13:31:30.823Z,18.70
2023-03-17T13:34:13.638Z,18.70
2023-03-17T13:37:04.734Z,18.70
2023-03-17T13:40:07.904Z,18.60
2023-03-17T13:43:00.042Z,18.50
2023-03-17T13:45:41.377Z,18.30
2023-03-17T13:48:30.046Z,18.10
2023-03-17T13:51:13.880Z,18.00
2023-03-17T13:53:45.755Z,17.90
2023-03-17T13:56:23.536Z,17.90
2023-03-17T13:58:57.741Z,18.10
2023-03-17T14:01:25.599Z,18.20
2023-03-17T14:03:55.463Z,18.40
2023-03-17T14:06:28.052Z,18.60
2023-03-17T14:09:00.637Z,18.70
2023-03-17T14:11:39.060Z,18.70
2023-03-17T14:14:29.562Z,18.70
2023-03-17T14:17:12.118Z,18.90
2023-03-17T14:19:41.593Z,18.90
2023-03-17T14:22:23.976Z,19.00
2023-03-17T14:24:55.592Z,19.10
2023-03-17T14:27:24.296Z,19.30
2023-03-17T14:29:52.282Z,19.40
2023-03-17T14:32:21.857Z,19.40
2023-03-17T14:34:56.081Z,19.30
2023-03-17T14:37:23.630Z,19.30
2023-03-17T14:39:57.420Z,19.30
2023-03-17T14:42:31.780Z,19.30
2023-03-17T14:45:07.478Z,19.20
2023-03-17T14:47:39.690Z,19.10
2023-03-17T14:50:17.913Z,19.00
2023-03-17T14:52:44.748Z,19.00
2023-03-17T14:55:14.538Z,19.00
2023-03-17T14:57:41.529Z,19.00
2023-03-17T15:00:32.361Z,19.00
2023-03-17T15:03:02.913Z,19.00
2023-03-17T15:05:42.585Z,19.00
2023-03-17T15:08:29.599Z,19.00
2023-03-17T15:10:59.672Z,19.00
2023-03-17T15:13:27.538Z,18.90
2023-03-17T15:15:55.449Z,18.90
2023-03-17T15:18:23.514Z,18.90
2023-03-17T15:20:50.275Z,18.80
2023-03-17T15:23:23.558Z,18.80
2023-03-17T15:25:56.311Z,18.70
2023-03-17T15:28:26.423Z,18.70
2023-03-17T15:30:56.402Z,18.70
2023-03-17T15:33:43.461Z,18.60
2023-03-17T15:36:31.462Z,18.60
2023-03-17T15:38:58.746Z,18.60
2023-03-17T15:41:25.584Z,18.60
2023-03-17T15:43:52.237Z,18.60
2023-03-17T15:46:27.222Z,18.50
2023-03-17T15:48:53.935Z,18.50
2023-03-17T15:51:21.110Z,18.50
2023-03-17T15:53:47.736Z,18.40
2023-03-17T15:56:20.604Z,18.40
2023-03-17T15:58:49.222Z,18.30
2023-03-17T16:01:16.959Z,18.30
2023-03-17T16:03:46.956Z,18.20
2023-03-17T16:06:22.386Z,18.10
2023-03-17T16:08:50.301Z,17.90
2023-03-17T16:11:28.132Z,17.80
2023-03-17T16:13:56.731Z,17.70
2023-03-17T16:16:37.738Z,17.60
2023-03-17T16:19:05.799Z,17.60
2023-03-17T16:21:32.616Z,17.50
2023-03-17T16:23:59.423Z,17.50
2023-03-17T16:26:26.563Z,17.40
2023-03-17T16:28:53.880Z,17.40
2023-03-17T16:31:30.206Z,17.40
2023-03-17T16:33:57.588Z,17.30
2023-03-17T16:36:25.685Z,17.30
2023-03-17T16:38:52.564Z,17.20
2023-03-17T16:41:22.288Z,17.20
2023-03-17T16:43:57.182Z,17.10
2023-03-17T16:46:25.067Z,16.90
2023-03-17T16:48:51.815Z,16.80
2023-03-17T16:51:18.934Z,16.60
2023-03-17T16:53:46.054Z,16.50
2023-03-17T16:56:19.063Z,16.40
2023-03-17T16:58:46.670Z,16.40
2023-03-17T17:01:25.711Z,16.30
2023-03-17T17:03:52.439Z,16.10
2023-03-17T17:06:20.596Z,16.00
2023-03-17T17:08:49.088Z,15.90
2023-03-17T17:11:17.259Z,15.80
2023-03-17T17:13:46.227Z,15.70
2023-03-17T17:16:25.360Z,15.60
2023-03-17T17:18:52.105Z,15.50
2023-03-17T17:21:18.718Z,15.30
2023-03-17T17:23:45.496Z,15.20
2023-03-17T17:26:12.200Z,15.10
2023-03-17T17:28:40.144Z,14.70
2023-03-17T17:31:08.466Z,14.50
2023-03-17T17:33:36.565Z,14.50
2023-03-17T17:36:05.889Z,14.50
2023-03-17T17:38:32.630Z,14.50
2023-03-17T17:41:05.769Z,14.40
2023-03-17T17:43:32.640Z,14.40
2023-03-17T17:45:59.418Z,14.40
2023-03-17T17:48:27.189Z,14.30
2023-03-17T17:50:55.644Z,14.20
2023-03-17T17:53:22.360Z,14.10
2023-03-17T17:55:50.293Z,14.10
2023-03-17T17:58:19.168Z,14.00
2023-03-17T18:00:46.155Z,13.90
2023-03-17T18:03:13.018Z,13.80
2023-03-17T18:05:39.754Z,13.70
2023-03-17T18:08:06.653Z,13.60
2023-03-17T18:10:34.230Z,13.60
2023-03-17T18:13:01.198Z,13.50
2023-03-17T18:15:27.860Z,13.50
2023-03-17T18:17:54.990Z,13.40
2023-03-17T18:20:23.299Z,13.30
2023-03-17T18:22:51.033Z,13.30
2023-03-17T18:25:18.023Z,13.30
2023-03-17T18:27:45.351Z,13.20
2023-03-17T18:30:23.380Z,13.20
2023-03-17T18:32:54.086Z,13.10
2023-03-17T18:35:22.642Z,13.10
2023-03-17T18:37:50.793Z,13.10
2023-03-17T18:40:19.109Z,13.00
2023-03-17T18:42:46.902Z,13.00
2023-03-17T18:45:14.518Z,12.90
2023-03-17T18:47:41.922Z,12.80
2023-03-17T18:50:11.179Z,12.80
2023-03-17T18:52:40.937Z,12.80
2023-03-17T18:55:09.440Z,12.80
2023-03-17T18:57:36.681Z,12.80
2023-03-17T19:00:05.095Z,12.70
2023-03-17T19:02:31.749Z,12.70
2023-03-17T19:04:58.486Z,12.60
2023-03-17T19:07:25.538Z,12.50
2023-03-17T19:09:52.272Z,12.40
2023-03-17T19:12:18.920Z,12.20
2023-03-17T19:14:45.731Z,12.20
2023-03-17T19:17:12.946Z,12.10
2023-03-17T19:19:41.326Z,12.10
2023-03-17T19:22:08.377Z,12.20
2023-03-17T19:24:36.113Z,12.30
2023-03-17T19:27:02.786Z,12.40
2023-03-17T19:29:29.595Z,12.40
2023-03-17T19:31:56.353Z,12.50
2023-03-17T19:34:23.312Z,12.50
2023-03-17T19:36:51.193Z,12.60
2023-03-17T19:39:18.311Z,12.60
2023-03-17T19:41:47.259Z,12.50
2023-03-17T19:44:14.416Z,12.50
2023-03-17T19:46:41.345Z,12.50
2023-03-17T19:49:08.111Z,12.40
2023-03-17T19:51:34.785Z,12.40
2023-03-17T19:54:01.698Z,12.40
2023-03-17T19:56:28.718Z,12.40
2023-03-17T19:58:55.906Z,12.40
2023-03-17T20:01:22.947Z,12.40
2023-03-17T20:03:49.885Z,12.30
2023-03-17T20:06:16.948Z,12.30
2023-03-17T20:08:44.074Z,12.30
2023-03-17T20:11:12.363Z,12.30
2023-03-17T20:13:39.437Z,12.30
2023-03-17T20:16:07.221Z,12.20
2023-03-17T20:18:34.198Z,12.20
2023-03-17T20:21:05.181Z,12.20
2023-03-17T20:23:32.202Z,12.20
2023-03-17T20:25:58.863Z,12.20
2023-03-17T20:28:25.553Z,12.20
2023-03-17T20:30:52.502Z,12.20
2023-03-17T20:33:19.353Z,12.20
2023-03-17T20:35:47.510Z,12.20
2023-03-17T20:38:16.002Z,12.10
2023-03-17T20:40:43.148Z,12.00
2023-03-17T20:43:10.712Z,11.90
2023-03-17T20:45:38.374Z,11.90
2023-03-17T20:48:06.117Z,11.80
2023-03-17T20:50:34.332Z,11.80
2023-03-17T20:53:01.585Z,11.80
2023-03-17T20:55:28.274Z,11.70
2023-03-17T20:57:54.941Z,11.70
2023-03-17T21:00:22.014Z,11.60
2023-03-17T21:02:50.229Z,11.60
2023-03-17T21:05:23.710Z,11.60
2023-03-17T21:07:51.421Z,11.60
2023-03-17T21:10:18.610Z,11.60
2023-03-17T21:12:45.681Z,11.50
2023-03-17T21:15:12.955Z,11.50
2023-03-17T21:17:40.045Z,11.60
2023-03-17T21:20:09.533Z,11.60
2023-03-17T21:22:36.794Z,11.60
2023-03-17T21:25:08.663Z,11.60
2023-03-17T21:27:39.486Z,11.60
2023-03-17T21:30:09.583Z,11.50
2023-03-17T21:32:36.269Z,11.40
2023-03-17T21:35:03.550Z,11.40
2023-03-17T21:37:30.471Z,11.40
2023-03-17T21:39:57.116Z,11.30
2023-03-17T21:42:24.687Z,11.30
2023-03-17T21:44:52.225Z,11.20
2023-03-17T21:47:19.664Z,11.20
2023-03-17T21:49:46.409Z,11.20
2023-03-17T21:52:14.852Z,11.20
2023-03-17T21:54:42.242Z,11.10
2023-03-17T21:57:09.081Z,11.10
2023-03-17T21:59:35.802Z,11.10
2023-03-17T22:02:02.912Z,11.10
2023-03-17T22:04:29.877Z,11.10
2023-03-17T22:06:57.062Z,11.10
2023-03-17T22:09:23.785Z,11.10
2023-03-17T22:11:50.419Z,11.20
2023-03-17T22:14:20.025Z,11.10
2023-03-17T22:16:48.262Z,11.20
2023-03-17T22:19:16.193Z,11.20
2023-03-17T22:21:42.872Z,11.20
2023-03-17T22:24:10.938Z,11.30
2023-03-17T22:26:37.854Z,11.30
2023-03-17T22:29:05.014Z,11.30
2023-03-17T22:31:31.776Z,11.30
2023-03-17T22:33:59.533Z,11.20
2023-03-17T22:36:27.699Z,11.20
2023-03-17T22:38:54.896Z,11.20
2023-03-17T22:41:24.365Z,11.20
2023-03-17T22:43:51.387Z,11.20
2023-03-17T22:46:19.046Z,11.20
2023-03-17T22:48:46.633Z,11.20
2023-03-17T22:51:19.213Z,11.20
2023-03-17T22:53:46.293Z,11.20
2023-03-17T22:56:14.790Z,11.20
2023-03-17T22:58:42.036Z,11.20
2023-03-17T23:01:09.741Z,11.10
2023-03-17T23:03:37.045Z,11.20
2023-03-17T23:06:05.523Z,11.20
2023-03-17T23:08:35.252Z,11.30
2023-03-17T23:11:05.649Z,11.30
2023-03-17T23:13:32.887Z,11.40
2023-03-17T23:15:59.850Z,11.40
2023-03-17T23:18:26.545Z,11.30
2023-03-17T23:20:53.569Z,11.30
2023-03-17T23:23:20.233Z,11.30
2023-03-17T23:25:47.460Z,11.30
2023-03-17T23:28:15.516Z,11.30
2023-03-17T23:30:43.767Z,11.30
2023-03-17T23:33:10.518Z,11.30
2023-03-17T23:35:37.473Z,11.30
2023-03-17T23:38:04.412Z,11.30
2023-03-17T23:40:32.076Z,11.30
2023-03-17T23:42:59.060Z,11.30
2023-03-17T23:45:25.856Z,11.30
2023-03-17T23:47:54.245Z,11.30
2023-03-17T23:50:21.491Z,11.30
2023-03-17T23:52:49.325Z,11.30
2023-03-17T23:55:16.809Z,11.30
2023-03-17T23:57:44.241Z,11.20
